Time;durP1;ratioP1;P1;durP2;ratioP2;P2;SDS_P1;SDS_P2;PMS_P1;PMS_P2;Temp;Humidity;BMP_temperature;BMP_pressure;BME280_temperature;BME280_humidity;BME280_pressure;Samples;Min_cycle;Max_cycle;Signal;HPM_P1;HPM_P2
2021/03/01 19:03:26;;;;;;;64.78;27.58;;;2.40;99.90;;;;;;6237321;23;20078;-70
2021/03/01 19:05:52;;;;;;;61.08;24.63;;;1.90;99.90;;;;;;6212909;23;20384;-70
2021/03/01 19:08:17;;;;;;;49.47;21.45;;;2.20;99.90;;;;;;6238659;23;20001;-70
2021/03/01 19:10:43;;;;;;;56.05;22.02;;;2.20;99.90;;;;;;6238805;23;20008;-69
2021/03/01 19:13:09;;;;;;;57.58;23.27;;;2.20;99.90;;;;;;6240148;23;20008;-70
2021/03/01 19:15:35;;;;;;;54.53;22.73;;;2.20;99.90;;;;;;6237792;23;20077;-70
2021/03/01 19:18:00;;;;;;;58.83;22.77;;;2.20;99.90;;;;;;6237959;23;20341;-70
2021/03/01 19:20:26;;;;;;;50.08;22.15;;;2.10;99.90;;;;;;6237983;23;20008;-69
2021/03/01 19:22:53;;;;;;;62.60;25.25;;;2.00;99.90;;;;;;6238239;23;20479;-69
2021/03/01 19:25:21;;;;;;;56.75;23.23;;;1.80;99.90;;;;;;6236102;23;20737;-70
2021/03/01 19:27:47;;;;;;;59.45;23.98;;;1.80;99.90;;;;;;6235572;23;20310;-69
2021/03/01 19:30:15;;;;;;;58.97;25.58;;;1.80;99.90;;;;;;6237218;23;20006;-71
2021/03/01 19:32:41;;;;;;;54.95;22.60;;;1.80;99.90;;;;;;6237791;23;20044;-74
2021/03/01 19:35:10;;;;;;;49.53;22.40;;;1.80;99.90;;;;;;6237893;23;20012;-71
2021/03/01 19:37:35;;;;;;;56.38;24.27;;;1.70;99.90;;;;;;6239406;23;20004;-70
2021/03/01 19:40:01;;;;;;;51.35;23.42;;;1.60;99.90;;;;;;6239214;23;20874;-71
2021/03/01 19:42:27;;;;;;;53.38;23.65;;;1.50;99.90;;;;;;6237910;23;20000;-71
2021/03/01 19:44:53;;;;;;;57.60;23.70;;;1.50;99.90;;;;;;6238314;23;20007;-71
2021/03/01 19:47:18;;;;;;;54.08;23.80;;;1.50;99.90;;;;;;6238135;23;20510;-70
2021/03/01 19:49:44;;;;;;;58.72;22.63;;;1.40;99.90;;;;;;6237258;23;20020;-70
2021/03/01 19:52:10;;;;;;;57.88;23.08;;;1.40;99.90;;;;;;6238502;22;20008;-70
2021/03/01 19:54:36;;;;;;;53.83;22.80;;;1.40;99.90;;;;;;6238471;23;20004;-69
2021/03/01 19:57:02;;;;;;;54.25;23.55;;;1.60;99.90;;;;;;6237357;23;20062;-70
2021/03/01 19:59:27;;;;;;;64.40;25.30;;;1.40;99.90;;;;;;6237859;23;20345;-71
2021/03/01 20:01:53;;;;;;;66.47;26.65;;;1.40;99.90;;;;;;6237317;23;20016;-70
2021/03/01 20:04:19;;;;;;;67.88;26.40;;;1.50;99.90;;;;;;6210505;23;20015;-71
2021/03/01 20:06:45;;;;;;;67.15;26.42;;;1.50;99.90;;;;;;6239095;23;20428;-70
2021/03/01 20:09:11;;;;;;;61.65;24.38;;;1.40;99.90;;;;;;6237973;23;20006;-70
2021/03/01 20:11:37;;;;;;;57.17;24.83;;;1.50;99.90;;;;;;6239507;23;20008;-71
2021/03/01 20:14:04;;;;;;;63.97;24.75;;;1.40;99.90;;;;;;6239998;23;20004;-71
2021/03/01 20:16:30;;;;;;;68.65;26.65;;;1.40;99.90;;;;;;6237795;23;20397;-70
2021/03/01 20:18:56;;;;;;;60.47;25.20;;;1.40;99.90;;;;;;6240466;23;20004;-70
2021/03/01 20:21:21;;;;;;;63.13;28.00;;;1.40;99.90;;;;;;6238801;23;20039;-72
2021/03/01 20:23:47;;;;;;;56.28;25.17;;;1.30;99.90;;;;;;6211504;23;20000;-70
2021/03/01 20:26:18;;;;;;;56.92;24.42;;;;;;;;;;6237927;23;20022;-71
2021/03/01 20:28:44;;;;;;;63.53;25.92;;;1.10;99.90;;;;;;6240931;23;20329;-70
2021/03/01 20:31:10;;;;;;;62.58;25.55;;;1.10;99.90;;;;;;6238954;23;20011;-70
2021/03/01 20:33:35;;;;;;;59.55;25.63;;;1.30;99.90;;;;;;6238936;23;20082;-70
2021/03/01 20:36:01;;;;;;;57.28;23.80;;;1.30;99.90;;;;;;6240998;23;20004;-71
2021/03/01 20:38:26;;;;;;;54.80;22.33;;;1.30;99.90;;;;;;6240016;23;20077;-72
2021/03/01 20:40:52;;;;;;;67.72;24.25;;;1.30;99.90;;;;;;6241134;23;20004;-72
2021/03/01 20:43:18;;;;;;;54.40;23.63;;;1.20;99.90;;;;;;6240274;23;20500;-72
2021/03/01 20:45:43;;;;;;;78.15;31.63;;;1.10;99.90;;;;;;6239634;23;20008;-71
2021/03/01 20:48:09;;;;;;;73.38;28.35;;;1.20;99.90;;;;;;6241041;23;20001;-71
2021/03/01 20:50:35;;;;;;;100.95;35.30;;;1.10;99.90;;;;;;6239741;23;20008;-72
2021/03/01 20:53:00;;;;;;;99.47;35.17;;;1.10;99.90;;;;;;6239273;22;20008;-72
2021/03/01 20:55:26;;;;;;;83.55;29.77;;;1.00;99.90;;;;;;6238522;23;20487;-71
2021/03/01 20:57:52;;;;;;;78.05;28.70;;;0.90;99.90;;;;;;6237577;23;20491;-71
2021/03/01 21:00:20;;;;;;;63.60;25.65;;;1.00;99.90;;;;;;6238054;23;20004;-70
2021/03/01 21:02:46;;;;;;;62.00;23.40;;;1.00;99.90;;;;;;6212550;23;20055;-70
2021/03/01 21:05:13;;;;;;;57.88;23.48;;;0.90;99.90;;;;;;6238446;23;20007;-70
2021/03/01 21:07:39;;;;;;;64.55;23.80;;;1.10;99.90;;;;;;6238950;23;20441;-71
2021/03/01 21:10:05;;;;;;;58.03;22.60;;;1.10;99.90;;;;;;6238271;23;20011;-69
2021/03/01 21:12:32;;;;;;;61.45;23.60;;;1.00;99.90;;;;;;6238652;23;20008;-70
2021/03/01 21:14:59;;;;;;;59.28;23.63;;;1.00;99.90;;;;;;6236527;23;20000;-70
2021/03/01 21:17:28;;;;;;;67.45;23.60;;;0.90;99.90;;;;;;6240129;23;20373;-70
2021/03/01 21:19:54;;;;;;;68.33;25.63;;;0.80;99.90;;;;;;6238455;23;20007;-70
2021/03/01 21:22:47;;;;;;;75.57;24.35;;;0.70;99.90;;;;;;6237999;23;20038;-69
2021/03/01 21:25:18;;;;;;;77.05;30.42;;;0.70;99.90;;;;;;6237331;23;20008;-70
2021/03/01 21:27:51;;;;;;;96.22;32.83;;;0.80;99.90;;;;;;6240555;23;20001;-71
2021/03/01 21:30:18;;;;;;;85.35;29.95;;;0.80;99.90;;;;;;6212435;23;20004;-69
2021/03/01 21:32:44;;;;;;;69.20;26.80;;;0.70;99.90;;;;;;6212150;23;20020;-70
2021/03/01 21:35:11;;;;;;;73.68;27.83;;;0.60;99.90;;;;;;6210331;23;20459;-70
2021/03/01 21:37:37;;;;;;;62.47;24.85;;;0.70;99.90;;;;;;6211255;23;20012;-70
2021/03/01 21:40:04;;;;;;;64.40;25.08;;;0.70;99.90;;;;;;6239261;23;20340;-69
2021/03/01 21:42:30;;;;;;;60.05;24.98;;;0.70;99.90;;;;;;6237808;23;20008;-70
2021/03/01 21:44:58;;;;;;;63.97;24.35;;;0.60;99.90;;;;;;6238924;23;20012;-69
2021/03/01 21:47:26;;;;;;;67.43;24.58;;;0.80;99.90;;;;;;6237779;23;20016;-70
2021/03/01 21:49:59;;;;;;;67.53;25.77;;;0.70;99.90;;;;;;6238679;23;20004;-69
2021/03/01 21:52:26;;;;;;;67.47;24.75;;;0.60;99.90;;;;;;6238176;22;20058;-70
2021/03/01 21:54:53;;;;;;;58.75;23.27;;;0.70;99.90;;;;;;6211691;23;20527;-71
2021/03/01 21:57:19;;;;;;;61.75;22.88;;;0.60;99.90;;;;;;6238893;23;20016;-70
2021/03/01 21:59:46;;;;;;;68.43;24.23;;;0.60;99.90;;;;;;6212331;23;20016;-70
2021/03/01 22:02:14;;;;;;;53.20;23.38;;;0.50;99.90;;;;;;6237244;23;20016;-71
2021/03/01 22:04:47;;;;;;;61.80;22.60;;;0.50;99.90;;;;;;6238984;23;20083;-70
2021/03/01 22:07:17;;;;;;;57.25;23.60;;;0.40;99.90;;;;;;6210754;23;20448;-70
2021/03/01 22:09:45;;;;;;;58.35;22.60;;;0.30;99.90;;;;;;6239332;23;20044;-69
2021/03/01 22:12:11;;;;;;;57.60;23.40;;;0.40;99.90;;;;;;6237878;23;20040;-71
2021/03/01 22:14:38;;;;;;;63.65;23.95;;;0.40;99.90;;;;;;6211934;23;20008;-70
2021/03/01 22:17:08;;;;;;;61.63;23.10;;;0.40;99.90;;;;;;6235110;23;20077;-69
2021/03/01 22:19:34;;;;;;;64.20;25.05;;;0.30;99.90;;;;;;6238265;23;20012;-70
2021/03/01 22:22:05;;;;;;;59.80;24.63;;;0.50;99.90;;;;;;6238767;23;20086;-70
2021/03/01 22:24:31;;;;;;;72.15;27.80;;;0.50;99.90;;;;;;6237576;23;20011;-70
2021/03/01 22:27:05;;;;;;;66.38;25.67;;;0.50;99.90;;;;;;6238197;23;20043;-70
2021/03/01 22:29:43;;;;;;;63.95;23.92;;;0.60;99.90;;;;;;6237809;23;20007;-70
2021/03/01 22:32:09;;;;;;;61.65;24.30;;;0.50;99.90;;;;;;6237939;23;20043;-72
2021/03/01 22:34:42;;;;;;;59.33;24.13;;;0.40;99.90;;;;;;6238507;23;20079;-71
2021/03/01 22:37:12;;;;;;;61.60;23.13;;;0.30;99.90;;;;;;6237887;23;20000;-71
2021/03/01 22:39:38;;;;;;;57.53;22.05;;;0.20;99.90;;;;;;6238284;23;20496;-71
2021/03/01 22:42:05;;;;;;;58.05;21.70;;;0.10;99.90;;;;;;6211313;23;20340;-70
2021/03/01 22:44:33;;;;;;;56.20;21.35;;;0.10;99.90;;;;;;6210709;23;20445;-70
2021/03/01 22:47:02;;;;;;;58.13;22.45;;;0.10;99.90;;;;;;6236864;23;20020;-69
2021/03/01 22:49:30;;;;;;;54.30;21.85;;;0.30;99.90;;;;;;6238169;23;20523;-70
2021/03/01 22:51:56;;;;;;;56.50;20.65;;;0.40;99.90;;;;;;6237672;22;20004;-72
2021/03/01 22:54:26;;;;;;;58.67;21.40;;;0.30;99.90;;;;;;6238595;23;20004;-71
2021/03/01 22:56:57;;;;;;;61.05;21.48;;;0.30;99.90;;;;;;6238979;23;20008;-72
2021/03/01 22:59:24;;;;;;;54.35;20.92;;;0.40;99.90;;;;;;6238745;23;20031;-71
2021/03/01 23:01:51;;;;;;;66.28;22.13;;;0.60;99.90;;;;;;6237483;23;20031;-71
2021/03/01 23:04:17;;;;;;;60.33;21.85;;;0.70;99.90;;;;;;6237854;23;20012;-70
2021/03/01 23:06:44;;;;;;;62.58;22.92;;;0.70;99.90;;;;;;6238325;23;20095;-71
2021/03/01 23:09:11;;;;;;;60.22;22.40;;;0.70;99.90;;;;;;6238039;23;20008;-70
2021/03/01 23:11:39;;;;;;;66.85;22.92;;;0.60;99.90;;;;;;6238631;23;20306;-73
2021/03/01 23:14:05;;;;;;;55.72;21.27;;;0.50;99.90;;;;;;6238757;23;20038;-71
2021/03/01 23:16:30;;;;;;;55.47;20.80;;;0.40;99.90;;;;;;6237767;23;20003;-72
2021/03/01 23:18:56;;;;;;;69.40;22.92;;;0.30;99.90;;;;;;6237811;23;20011;-71
2021/03/01 23:21:22;;;;;;;63.08;21.00;;;0.30;99.90;;;;;;6237196;23;20321;-72
2021/03/01 23:23:47;;;;;;;56.95;20.80;;;0.30;99.90;;;;;;6238350;23;20008;-71
2021/03/01 23:26:13;;;;;;;59.75;21.45;;;0.20;99.90;;;;;;6234736;23;20008;-71
2021/03/01 23:28:39;;;;;;;60.78;21.23;;;0.30;99.90;;;;;;6238279;23;20011;-71
2021/03/01 23:31:04;;;;;;;57.67;21.63;;;0.30;99.90;;;;;;6238718;23;20516;-71
2021/03/01 23:33:30;;;;;;;58.58;21.48;;;0.30;99.90;;;;;;6238200;23;20004;-70
2021/03/01 23:35:56;;;;;;;63.75;22.50;;;0.30;99.90;;;;;;6238294;23;20384;-70
2021/03/01 23:38:23;;;;;;;61.00;22.45;;;0.20;99.90;;;;;;6236509;23;20011;-70
2021/03/01 23:40:50;;;;;;;61.58;23.40;;;0.10;99.90;;;;;;6212469;23;20086;-71
2021/03/01 23:43:16;;;;;;;61.65;25.27;;;0.10;99.90;;;;;;6238121;23;20075;-70
2021/03/01 23:45:43;;;;;;;68.35;25.95;;;0.10;99.90;;;;;;6238748;23;20545;-71
2021/03/01 23:48:10;;;;;;;64.03;25.23;;;0.10;99.90;;;;;;6238456;23;20078;-70
2021/03/01 23:50:36;;;;;;;59.17;20.67;;;0.10;99.90;;;;;;6238991;23;20012;-70
2021/03/01 23:53:03;;;;;;;60.70;22.65;;;0.20;99.90;;;;;;6240446;22;20337;-69
2021/03/01 23:55:30;;;;;;;59.08;22.35;;;0.20;99.90;;;;;;6239001;23;20008;-70
2021/03/01 23:57:57;;;;;;;52.75;21.08;;;0.20;99.90;;;;;;6240807;23;20452;-70
